^^
Daily Summary for December 26, 2021 Units:  Both    English   Metric
Daily Weekly Monthly Yearly Custom
  High: Low: Average:
Temperature: 38.0 °F /  3.3 °C 34.0 °F /  1.1 °C 35.8 °F /  2.1 °C
Dew Point: 36.0 °F /  2.2 °C 32.0 °F /  0 °C 34 °F /  1.1 °C
Humidity: 94% 90% 93%
Wind Speed: 27mph /  43.5km/h - 10.1mph /  16.3km/h
Wind Gust: 26mph /  41.8km/h - -
Wind- - ESE
Pressure: 30.2 in /  1022.6 hPa 29.9 in /  1012.4 hPa -
Precipitation: 0.490 in /  12.45 mm    
Historical Graphs
 
 
Tabular Data for December 26, 2021
Time Temperature Dew Point Pressure Wind Wind Speed Wind Gust Humidity Rainfall Rate (Hourly) solar
00:04 38.0 °F /  3.3 °C 36.0 °F /  2.2 °C 29.9in /  1012.4hPa ESE 18mph /  29km/h 16mph /  25.7km/h 94% 0.020in /  0.51mm 0.00 W/m2
00:09 38.0 °F /  3.3 °C 36.0 °F /  2.2 °C 29.9in /  1012.4hPa ESE 13mph /  20.9km/h 17mph /  27.4km/h 94% 0.020in /  0.51mm 0.00 W/m2
00:14 37.0 °F /  2.8 °C 36.0 °F /  2.2 °C 29.9in /  1012.4hPa ENE 18mph /  29km/h 13mph /  20.9km/h 94% 0.020in /  0.51mm 0.00 W/m2
00:19 37.0 °F /  2.8 °C 36.0 °F /  2.2 °C 29.9in /  1012.4hPa East 26mph /  41.8km/h 17mph /  27.4km/h 94% 0.020in /  0.51mm 0.00 W/m2
00:24 37.0 °F /  2.8 °C 36.0 °F /  2.2 °C 29.9in /  1012.4hPa SW 27mph /  43.5km/h 14mph /  22.5km/h 94% 0.020in /  0.51mm 0.00 W/m2
00:29 37.0 °F /  2.8 °C 36.0 °F /  2.2 °C 29.9in /  1012.4hPa ENE 23mph /  37km/h 26mph /  41.8km/h 94% 0.010in /  0.25mm 0.00 W/m2
00:34 37.0 °F /  2.8 °C 36.0 °F /  2.2 °C 29.9in /  1012.4hPa ESE 18mph /  29km/h 23mph /  37km/h 94% 0.010in /  0.25mm 0.00 W/m2
00:39 37.0 °F /  2.8 °C 36.0 °F /  2.2 °C 29.9in /  1012.4hPa East 21mph /  33.8km/h 17mph /  27.4km/h 94% 0.010in /  0.25mm 0.00 W/m2
00:44 37.0 °F /  2.8 °C 35.0 °F /  1.7 °C 29.9in /  1012.4hPa East 16mph /  25.7km/h 21mph /  33.8km/h 94% 0.000in /  0mm 0.00 W/m2
00:49 37.0 °F /  2.8 °C 35.0 °F /  1.7 °C 29.9in /  1012.4hPa East 23mph /  37km/h 16mph /  25.7km/h 94% 0.000in /  0mm 0.00 W/m2
00:54 37.0 °F /  2.8 °C 35.0 °F /  1.7 °C 29.9in /  1012.4hPa East 16mph /  25.7km/h 23mph /  37km/h 94% 0.000in /  0mm 0.00 W/m2
00:59 37.0 °F /  2.8 °C 35.0 °F /  1.7 °C 29.9in /  1012.4hPa North 23mph /  37km/h 16mph /  25.7km/h 94% 0.000in /  0mm 0.00 W/m2
01:04 37.0 °F /  2.8 °C 35.0 °F /  1.7 °C 29.9in /  1012.4hPa ESE 20mph /  32.2km/h 23mph /  37km/h 94% 0.000in /  0mm 0.00 W/m2
01:09 37.0 °F /  2.8 °C 35.0 °F /  1.7 °C 29.9in /  1012.4hPa ESE 18mph /  29km/h 20mph /  32.2km/h 94% 0.000in /  0mm 0.00 W/m2
01:14 37.0 °F /  2.8 °C 35.0 °F /  1.7 °C 29.9in /  1012.4hPa East 18mph /  29km/h 17mph /  27.4km/h 94% 0.000in /  0mm 0.00 W/m2
01:19 36.0 °F /  2.2 °C 35.0 °F /  1.7 °C 29.9in /  1012.4hPa SE 13mph /  20.9km/h 17mph /  27.4km/h 94% 0.000in /  0mm 0.00 W/m2
01:24 36.0 °F /  2.2 °C 35.0 °F /  1.7 °C 30.0in /  1015.8hPa ESE 18mph /  29km/h 13mph /  20.9km/h 94% 0.000in /  0mm 0.00 W/m2
01:29 36.0 °F /  2.2 °C 35.0 °F /  1.7 °C 30.0in /  1015.8hPa ESE 11mph /  17.7km/h 17mph /  27.4km/h 94% 0.000in /  0mm 0.00 W/m2
01:34 37.0 °F /  2.8 °C 35.0 °F /  1.7 °C 30.0in /  1015.8hPa East 13mph /  20.9km/h 9mph /  14.5km/h 94% 0.000in /  0mm 0.00 W/m2
01:39 37.0 °F /  2.8 °C 35.0 °F /  1.7 °C 30.0in /  1015.8hPa ESE 20mph /  32.2km/h 13mph /  20.9km/h 94% 0.000in /  0mm 0.00 W/m2
01:44 37.0 °F /  2.8 °C 35.0 °F /  1.7 °C 30.0in /  1015.8hPa SE 10mph /  16.1km/h 20mph /  32.2km/h 94% 0.000in /  0mm 0.00 W/m2
01:49 37.0 °F /  2.8 °C 35.0 °F /  1.7 °C 30.0in /  1015.8hPa SE 18mph /  29km/h 14mph /  22.5km/h 94% 0.000in /  0mm 0.00 W/m2
01:54 37.0 °F /  2.8 °C 35.0 °F /  1.7 °C 30.0in /  1015.8hPa ENE 17mph /  27.4km/h 17mph /  27.4km/h 94% 0.000in /  0mm 0.00 W/m2
01:59 36.0 °F /  2.2 °C 35.0 °F /  1.7 °C 30.0in /  1015.8hPa ESE 16mph /  25.7km/h 16mph /  25.7km/h 94% 0.000in /  0mm 0.00 W/m2
02:04 36.0 °F /  2.2 °C 35.0 °F /  1.7 °C 30.0in /  1015.8hPa SE 20mph /  32.2km/h 16mph /  25.7km/h 94% 0.000in /  0mm 0.00 W/m2
02:09 36.0 °F /  2.2 °C 35.0 °F /  1.7 °C 30.0in /  1015.8hPa SSE 19mph /  30.6km/h 20mph /  32.2km/h 94% 0.000in /  0mm 0.00 W/m2
02:14 36.0 °F /  2.2 °C 35.0 °F /  1.7 °C 30.0in /  1015.8hPa East 20mph /  32.2km/h 20mph /  32.2km/h 94% 0.000in /  0mm 0.00 W/m2
02:19 36.0 °F /  2.2 °C 35.0 °F /  1.7 °C 30.0in /  1015.8hPa ESE 16mph /  25.7km/h 16mph /  25.7km/h 94% 0.000in /  0mm 0.00 W/m2
02:24 36.0 °F /  2.2 °C 35.0 °F /  1.7 °C 30.0in /  1015.8hPa ESE 11mph /  17.7km/h 7mph /  11.3km/h 94% 0.000in /  0mm 0.00 W/m2
02:29 36.0 °F /  2.2 °C 35.0 °F /  1.7 °C 30.0in /  1015.8hPa SE 20mph /  32.2km/h 10mph /  16.1km/h 94% 0.000in /  0mm 0.00 W/m2
02:34 36.0 °F /  2.2 °C 35.0 °F /  1.7 °C 30.0in /  1015.8hPa ESE 11mph /  17.7km/h 20mph /  32.2km/h 94% 0.000in /  0mm 0.00 W/m2
02:39 36.0 °F /  2.2 °C 35.0 °F /  1.7 °C 30.0in /  1015.8hPa ESE 20mph /  32.2km/h 20mph /  32.2km/h 94% 0.000in /  0mm 0.00 W/m2
02:40 36.0 °F /  2.2 °C 35.0 °F /  1.7 °C 30.0in /  1015.8hPa ESE 3mph /  4.8km/h 16mph /  25.7km/h 94% 0.000in /  0mm 0.00 W/m2
02:49 36.0 °F /  2.2 °C 35.0 °F /  1.7 °C 30.0in /  1015.8hPa NE 14mph /  22.5km/h 9mph /  14.5km/h 94% 0.000in /  0mm 0.00 W/m2
02:54 36.0 °F /  2.2 °C 35.0 °F /  1.7 °C 30.0in /  1015.8hPa ESE 11mph /  17.7km/h 14mph /  22.5km/h 94% 0.000in /  0mm 0.00 W/m2
02:59 36.0 °F /  2.2 °C 35.0 °F /  1.7 °C 30.0in /  1015.8hPa ESE 11mph /  17.7km/h 10mph /  16.1km/h 94% 0.000in /  0mm 0.00 W/m2
03:04 36.0 °F /  2.2 °C 35.0 °F /  1.7 °C 30.0in /  1015.8hPa East 18mph /  29km/h 10mph /  16.1km/h 94% 0.000in /  0mm 0.00 W/m2
03:09 36.0 °F /  2.2 °C 35.0 °F /  1.7 °C 30.0in /  1015.8hPa East 17mph /  27.4km/h 17mph /  27.4km/h 94% 0.000in /  0mm 0.00 W/m2
03:14 36.0 °F /  2.2 °C 35.0 °F /  1.7 °C 30.0in /  1015.8hPa East 11mph /  17.7km/h 13mph /  20.9km/h 94% 0.000in /  0mm 0.00 W/m2
03:19 36.0 °F /  2.2 °C 35.0 °F /  1.7 °C 30.0in /  1015.8hPa ESE 16mph /  25.7km/h 13mph /  20.9km/h 94% 0.000in /  0mm 0.00 W/m2
03:24 36.0 °F /  2.2 °C 34.0 °F /  1.1 °C 30.0in /  1015.8hPa East 16mph /  25.7km/h 16mph /  25.7km/h 94% 0.000in /  0mm 0.00 W/m2
03:29 36.0 °F /  2.2 °C 34.0 °F /  1.1 °C 30.0in /  1015.8hPa SE 18mph /  29km/h 10mph /  16.1km/h 94% 0.000in /  0mm 0.00 W/m2
03:34 36.0 °F /  2.2 °C 34.0 °F /  1.1 °C 30.0in /  1015.8hPa ENE 13mph /  20.9km/h 17mph /  27.4km/h 94% 0.000in /  0mm 0.00 W/m2
03:39 36.0 °F /  2.2 °C 34.0 °F /  1.1 °C 30.0in /  1015.8hPa North 13mph /  20.9km/h 13mph /  20.9km/h 94% 0.000in /  0mm 0.00 W/m2
03:44 36.0 °F /  2.2 °C 34.0 °F /  1.1 °C 30.0in /  1015.8hPa ENE 16mph /  25.7km/h 15mph /  24.1km/h 94% 0.000in /  0mm 0.00 W/m2
03:49 36.0 °F /  2.2 °C 34.0 °F /  1.1 °C 30.0in /  1015.8hPa ESE 16mph /  25.7km/h 16mph /  25.7km/h 94% 0.000in /  0mm 0.00 W/m2
03:54 36.0 °F /  2.2 °C 34.0 °F /  1.1 °C 30.0in /  1015.8hPa East 8mph /  12.9km/h 16mph /  25.7km/h 94% 0.000in /  0mm 0.00 W/m2
03:59 36.0 °F /  2.2 °C 34.0 °F /  1.1 °C 30.0in /  1015.8hPa East 18mph /  29km/h 8mph /  12.9km/h 94% 0.000in /  0mm 0.00 W/m2
04:04 36.0 °F /  2.2 °C 34.0 °F /  1.1 °C 30.0in /  1015.8hPa ESE 13mph /  20.9km/h 17mph /  27.4km/h 94% 0.000in /  0mm 0.00 W/m2
04:09 36.0 °F /  2.2 °C 34.0 °F /  1.1 °C 30.0in /  1015.8hPa ENE 9mph /  14.5km/h 13mph /  20.9km/h 94% 0.000in /  0mm 0.00 W/m2
04:14 36.0 °F /  2.2 °C 34.0 °F /  1.1 °C 30.0in /  1015.8hPa NNW 18mph /  29km/h 17mph /  27.4km/h 94% 0.000in /  0mm 0.00 W/m2
04:19 36.0 °F /  2.2 °C 34.0 °F /  1.1 °C 30.0in /  1015.8hPa East 16mph /  25.7km/h 16mph /  25.7km/h 94% 0.000in /  0mm 0.00 W/m2
04:24 36.0 °F /  2.2 °C 34.0 °F /  1.1 °C 30.0in /  1015.8hPa ESE 6mph /  9.7km/h 16mph /  25.7km/h 94% 0.000in /  0mm 0.00 W/m2
04:29 36.0 °F /  2.2 °C 34.0 °F /  1.1 °C 30.1in /  1019.2hPa East 7mph /  11.3km/h 6mph /  9.7km/h 94% 0.000in /  0mm 0.00 W/m2
04:34 36.0 °F /  2.2 °C 34.0 °F /  1.1 °C 30.1in /  1019.2hPa NE 11mph /  17.7km/h 7mph /  11.3km/h 94% 0.000in /  0mm 0.00 W/m2
04:39 35.0 °F /  1.7 °C 34.0 °F /  1.1 °C 30.1in /  1019.2hPa East 9mph /  14.5km/h 10mph /  16.1km/h 94% 0.000in /  0mm 0.00 W/m2
04:44 35.0 °F /  1.7 °C 34.0 °F /  1.1 °C 30.1in /  1019.2hPa ESE 7mph /  11.3km/h 6mph /  9.7km/h 94% 0.000in /  0mm 0.00 W/m2
04:49 35.0 °F /  1.7 °C 34.0 °F /  1.1 °C 30.1in /  1019.2hPa NNE 9mph /  14.5km/h 7mph /  11.3km/h 94% 0.000in /  0mm 0.00 W/m2
04:54 35.0 °F /  1.7 °C 34.0 °F /  1.1 °C 30.1in /  1019.2hPa SE 9mph /  14.5km/h 9mph /  14.5km/h 94% 0.000in /  0mm 0.00 W/m2
04:59 35.0 °F /  1.7 °C 34.0 °F /  1.1 °C 30.1in /  1019.2hPa NNE 7mph /  11.3km/h 9mph /  14.5km/h 94% 0.000in /  0mm 0.00 W/m2
05:04 35.0 °F /  1.7 °C 34.0 °F /  1.1 °C 30.1in /  1019.2hPa ESE 7mph /  11.3km/h 7mph /  11.3km/h 94% 0.000in /  0mm 0.00 W/m2
05:09 35.0 °F /  1.7 °C 34.0 °F /  1.1 °C 30.1in /  1019.2hPa ESE 7mph /  11.3km/h 7mph /  11.3km/h 94% 0.000in /  0mm 0.00 W/m2
05:14 35.0 °F /  1.7 °C 34.0 °F /  1.1 °C 30.1in /  1019.2hPa ESE 7mph /  11.3km/h 6mph /  9.7km/h 94% 0.000in /  0mm 0.00 W/m2
05:19 35.0 °F /  1.7 °C 34.0 °F /  1.1 °C 30.1in /  1019.2hPa ESE 7mph /  11.3km/h 7mph /  11.3km/h 94% 0.000in /  0mm 0.00 W/m2
05:24 35.0 °F /  1.7 °C 34.0 °F /  1.1 °C 30.1in /  1019.2hPa SE 6mph /  9.7km/h 7mph /  11.3km/h 94% 0.000in /  0mm 0.00 W/m2
05:29 35.0 °F /  1.7 °C 34.0 °F /  1.1 °C 30.1in /  1019.2hPa East 16mph /  25.7km/h 9mph /  14.5km/h 94% 0.000in /  0mm 0.00 W/m2
05:34 35.0 °F /  1.7 °C 34.0 °F /  1.1 °C 30.1in /  1019.2hPa East 13mph /  20.9km/h 16mph /  25.7km/h 94% 0.000in /  0mm 0.00 W/m2
05:39 35.0 °F /  1.7 °C 34.0 °F /  1.1 °C 30.1in /  1019.2hPa East 9mph /  14.5km/h 13mph /  20.9km/h 94% 0.000in /  0mm 0.00 W/m2
05:44 35.0 °F /  1.7 °C 34.0 °F /  1.1 °C 30.1in /  1019.2hPa SE 7mph /  11.3km/h 7mph /  11.3km/h 94% 0.000in /  0mm 0.00 W/m2
05:49 35.0 °F /  1.7 °C 33.0 °F /  0.6 °C 30.1in /  1019.2hPa ESE 16mph /  25.7km/h 13mph /  20.9km/h 94% 0.000in /  0mm 0.00 W/m2
05:54 35.0 °F /  1.7 °C 33.0 °F /  0.6 °C 30.1in /  1019.2hPa SE 6mph /  9.7km/h 16mph /  25.7km/h 94% 0.000in /  0mm 0.00 W/m2
05:59 35.0 °F /  1.7 °C 33.0 °F /  0.6 °C 30.1in /  1019.2hPa SSE 2mph /  3.2km/h 6mph /  9.7km/h 94% 0.000in /  0mm 0.00 W/m2
06:04 35.0 °F /  1.7 °C 33.0 °F /  0.6 °C 30.1in /  1019.2hPa SE 13mph /  20.9km/h 7mph /  11.3km/h 94% 0.000in /  0mm 0.00 W/m2
06:09 35.0 °F /  1.7 °C 33.0 °F /  0.6 °C 30.1in /  1019.2hPa ESE 9mph /  14.5km/h 13mph /  20.9km/h 94% 0.000in /  0mm 0.00 W/m2
06:14 35.0 °F /  1.7 °C 33.0 °F /  0.6 °C 30.1in /  1019.2hPa ENE 6mph /  9.7km/h 7mph /  11.3km/h 94% 0.000in /  0mm 0.00 W/m2
06:19 35.0 °F /  1.7 °C 33.0 °F /  0.6 °C 30.1in /  1019.2hPa SE 9mph /  14.5km/h 7mph /  11.3km/h 94% 0.000in /  0mm 0.00 W/m2
06:24 35.0 °F /  1.7 °C 33.0 °F /  0.6 °C 30.1in /  1019.2hPa NE 5mph /  8km/h 9mph /  14.5km/h 94% 0.000in /  0mm 0.00 W/m2
06:29 35.0 °F /  1.7 °C 33.0 °F /  0.6 °C 30.1in /  1019.2hPa NNE 7mph /  11.3km/h 6mph /  9.7km/h 94% 0.000in /  0mm 0.00 W/m2
06:34 35.0 °F /  1.7 °C 33.0 °F /  0.6 °C 30.1in /  1019.2hPa North 7mph /  11.3km/h 7mph /  11.3km/h 94% 0.000in /  0mm 0.00 W/m2
06:39 35.0 °F /  1.7 °C 33.0 °F /  0.6 °C 30.1in /  1019.2hPa NNE 9mph /  14.5km/h 2mph /  3.2km/h 94% 0.000in /  0mm 0.00 W/m2
06:44 35.0 °F /  1.7 °C 33.0 °F /  0.6 °C 30.1in /  1019.2hPa SE 6mph /  9.7km/h 9mph /  14.5km/h 94% 0.000in /  0mm 0.00 W/m2
06:49 35.0 °F /  1.7 °C 33.0 °F /  0.6 °C 30.1in /  1019.2hPa ENE 11mph /  17.7km/h 6mph /  9.7km/h 94% 0.000in /  0mm 0.00 W/m2
06:54 35.0 °F /  1.7 °C 33.0 °F /  0.6 °C 30.1in /  1019.2hPa NNE 7mph /  11.3km/h 10mph /  16.1km/h 93% 0.000in /  0mm 0.00 W/m2
06:59 35.0 °F /  1.7 °C 33.0 °F /  0.6 °C 30.1in /  1019.2hPa NNE 7mph /  11.3km/h 7mph /  11.3km/h 94% 0.000in /  0mm 0.00 W/m2
07:04 35.0 °F /  1.7 °C 33.0 °F /  0.6 °C 30.1in /  1019.2hPa NE 4mph /  6.4km/h   94% 0.000in /  0mm 0.00 W/m2
07:09 35.0 °F /  1.7 °C 33.0 °F /  0.6 °C 30.1in /  1019.2hPa North 5mph /  8km/h 3mph /  4.8km/h 94% 0.000in /  0mm 0.00 W/m2
07:14 35.0 °F /  1.7 °C 33.0 °F /  0.6 °C 30.1in /  1019.2hPa North 6mph /  9.7km/h 6mph /  9.7km/h 94% 0.000in /  0mm 0.00 W/m2
07:19 35.0 °F /  1.7 °C 33.0 °F /  0.6 °C 30.1in /  1019.2hPa NE 7mph /  11.3km/h 3mph /  4.8km/h 94% 0.000in /  0mm 0.00 W/m2
07:24 35.0 °F /  1.7 °C 33.0 °F /  0.6 °C 30.1in /  1019.2hPa ESE 7mph /  11.3km/h 7mph /  11.3km/h 94% 0.000in /  0mm 0.00 W/m2
07:29 35.0 °F /  1.7 °C 33.0 °F /  0.6 °C 30.1in /  1019.2hPa SSE 4mph /  6.4km/h 2mph /  3.2km/h 93% 0.000in /  0mm 0.00 W/m2
07:34 35.0 °F /  1.7 °C 33.0 °F /  0.6 °C 30.1in /  1019.2hPa East 2mph /  3.2km/h 3mph /  4.8km/h 93% 0.000in /  0mm 5.00 W/m2
07:39 35.0 °F /  1.7 °C 33.0 °F /  0.6 °C 30.1in /  1019.2hPa North 6mph /  9.7km/h 2mph /  3.2km/h 93% 0.000in /  0mm 5.00 W/m2
07:44 35.0 °F /  1.7 °C 33.0 °F /  0.6 °C 30.1in /  1019.2hPa Calm   6mph /  9.7km/h 93% 0.000in /  0mm 7.00 W/m2
07:49 35.0 °F /  1.7 °C 33.0 °F /  0.6 °C 30.1in /  1019.2hPa Calm     93% 0.000in /  0mm 23.00 W/m2
07:54 35.0 °F /  1.7 °C 33.0 °F /  0.6 °C 30.1in /  1019.2hPa NNW 4mph /  6.4km/h 1mph /  1.6km/h 93% 0.000in /  0mm 28.00 W/m2
07:59 35.0 °F /  1.7 °C 33.0 °F /  0.6 °C 30.1in /  1019.2hPa NNW 4mph /  6.4km/h 3mph /  4.8km/h 93% 0.000in /  0mm 28.00 W/m2
08:04 35.0 °F /  1.7 °C 33.0 °F /  0.6 °C 30.2in /  1022.6hPa North 6mph /  9.7km/h 3mph /  4.8km/h 93% 0.000in /  0mm 25.00 W/m2
08:09 35.0 °F /  1.7 °C 33.0 °F /  0.6 °C 30.2in /  1022.6hPa ENE 7mph /  11.3km/h 6mph /  9.7km/h 94% 0.000in /  0mm 39.00 W/m2
08:14 35.0 °F /  1.7 °C 33.0 °F /  0.6 °C 30.2in /  1022.6hPa North 7mph /  11.3km/h 7mph /  11.3km/h 94% 0.000in /  0mm 74.00 W/m2
08:19 35.0 °F /  1.7 °C 34.0 °F /  1.1 °C 30.2in /  1022.6hPa NNE 4mph /  6.4km/h 3mph /  4.8km/h 94% 0.000in /  0mm 74.00 W/m2
08:24 35.0 °F /  1.7 °C 34.0 °F /  1.1 °C 30.2in /  1022.6hPa North 6mph /  9.7km/h 3mph /  4.8km/h 94% 0.000in /  0mm 69.00 W/m2
08:29 35.0 °F /  1.7 °C 34.0 °F /  1.1 °C 30.2in /  1022.6hPa ENE 6mph /  9.7km/h 6mph /  9.7km/h 94% 0.000in /  0mm 77.00 W/m2
08:34 36.0 °F /  2.2 °C 34.0 °F /  1.1 °C 30.2in /  1022.6hPa NNW 6mph /  9.7km/h 6mph /  9.7km/h 94% 0.000in /  0mm 69.00 W/m2
08:39 36.0 °F /  2.2 °C 34.0 °F /  1.1 °C 30.2in /  1022.6hPa Calm   6mph /  9.7km/h 93% 0.000in /  0mm 56.00 W/m2
08:44 36.0 °F /  2.2 °C 34.0 °F /  1.1 °C 30.2in /  1022.6hPa West 4mph /  6.4km/h 2mph /  3.2km/h 94% 0.000in /  0mm 54.00 W/m2
08:49 36.0 °F /  2.2 °C 34.0 °F /  1.1 °C 30.2in /  1022.6hPa East 6mph /  9.7km/h 6mph /  9.7km/h 94% 0.000in /  0mm 69.00 W/m2
08:54 36.0 °F /  2.2 °C 34.0 °F /  1.1 °C 30.2in /  1022.6hPa ESE 6mph /  9.7km/h 3mph /  4.8km/h 93% 0.000in /  0mm 76.00 W/m2
08:59 36.0 °F /  2.2 °C 34.0 °F /  1.1 °C 30.2in /  1022.6hPa ESE 4mph /  6.4km/h 6mph /  9.7km/h 93% 0.000in /  0mm 69.00 W/m2
09:04 36.0 °F /  2.2 °C 34.0 °F /  1.1 °C 30.2in /  1022.6hPa North 7mph /  11.3km/h 3mph /  4.8km/h 93% 0.000in /  0mm 56.00 W/m2
09:09 36.0 °F /  2.2 °C 34.0 °F /  1.1 °C 30.2in /  1022.6hPa NNE 7mph /  11.3km/h 7mph /  11.3km/h 93% 0.000in /  0mm 60.00 W/m2
09:14 36.0 °F /  2.2 °C 34.0 °F /  1.1 °C 30.2in /  1022.6hPa ESE 4mph /  6.4km/h 1mph /  1.6km/h 93% 0.000in /  0mm 62.00 W/m2
09:19 36.0 °F /  2.2 °C 34.0 °F /  1.1 °C 30.2in /  1022.6hPa North 7mph /  11.3km/h 4mph /  6.4km/h 93% 0.000in /  0mm 69.00 W/m2
09:24 36.0 °F /  2.2 °C 34.0 °F /  1.1 °C 30.2in /  1022.6hPa ENE 7mph /  11.3km/h 7mph /  11.3km/h 93% 0.000in /  0mm 63.00 W/m2
09:29 36.0 °F /  2.2 °C 34.0 °F /  1.1 °C 30.2in /  1022.6hPa North 7mph /  11.3km/h 7mph /  11.3km/h 93% 0.000in /  0mm 39.00 W/m2
09:34 36.0 °F /  2.2 °C 34.0 °F /  1.1 °C 30.2in /  1022.6hPa SE 4mph /  6.4km/h 7mph /  11.3km/h 92% 0.000in /  0mm 30.00 W/m2
09:39 36.0 °F /  2.2 °C 34.0 °F /  1.1 °C 30.2in /  1022.6hPa ENE 4mph /  6.4km/h 3mph /  4.8km/h 92% 0.000in /  0mm 37.00 W/m2
09:44 36.0 °F /  2.2 °C 34.0 °F /  1.1 °C 30.2in /  1022.6hPa NNW 7mph /  11.3km/h 3mph /  4.8km/h 92% 0.000in /  0mm 46.00 W/m2
09:49 37.0 °F /  2.8 °C 34.0 °F /  1.1 °C 30.2in /  1022.6hPa ENE 4mph /  6.4km/h 7mph /  11.3km/h 91% 0.000in /  0mm 46.00 W/m2
09:54 37.0 °F /  2.8 °C 34.0 °F /  1.1 °C 30.2in /  1022.6hPa NW 6mph /  9.7km/h 2mph /  3.2km/h 91% 0.000in /  0mm 47.00 W/m2
09:59 37.0 °F /  2.8 °C 34.0 °F /  1.1 °C 30.2in /  1022.6hPa ESE 7mph /  11.3km/h 7mph /  11.3km/h 91% 0.000in /  0mm 51.00 W/m2
10:04 37.0 °F /  2.8 °C 34.0 °F /  1.1 °C 30.2in /  1022.6hPa NNW 2mph /  3.2km/h 6mph /  9.7km/h 91% 0.000in /  0mm 40.00 W/m2
10:09 37.0 °F /  2.8 °C 34.0 °F /  1.1 °C 30.2in /  1022.6hPa East 6mph /  9.7km/h 2mph /  3.2km/h 91% 0.000in /  0mm 30.00 W/m2
10:14 37.0 °F /  2.8 °C 34.0 °F /  1.1 °C 30.2in /  1022.6hPa East 16mph /  25.7km/h 6mph /  9.7km/h 91% 0.000in /  0mm 42.00 W/m2
10:19 37.0 °F /  2.8 °C 34.0 °F /  1.1 °C 30.2in /  1022.6hPa East 13mph /  20.9km/h 16mph /  25.7km/h 91% 0.000in /  0mm 62.00 W/m2
10:24 37.0 °F /  2.8 °C 34.0 °F /  1.1 °C 30.2in /  1022.6hPa NE 7mph /  11.3km/h 6mph /  9.7km/h 91% 0.000in /  0mm 58.00 W/m2
10:29 37.0 °F /  2.8 °C 34.0 °F /  1.1 °C 30.2in /  1022.6hPa ENE 6mph /  9.7km/h 7mph /  11.3km/h 91% 0.000in /  0mm 69.00 W/m2
10:34 37.0 °F /  2.8 °C 35.0 °F /  1.7 °C 30.2in /  1022.6hPa North 9mph /  14.5km/h 6mph /  9.7km/h 91% 0.000in /  0mm 97.00 W/m2
10:39 37.0 °F /  2.8 °C 35.0 °F /  1.7 °C 30.2in /  1022.6hPa ESE 9mph /  14.5km/h 9mph /  14.5km/h 91% 0.000in /  0mm 97.00 W/m2
10:44 37.0 °F /  2.8 °C 35.0 °F /  1.7 °C 30.2in /  1022.6hPa NE 21mph /  33.8km/h 9mph /  14.5km/h 91% 0.000in /  0mm 105.00 W/m2
10:49 37.0 °F /  2.8 °C 35.0 °F /  1.7 °C 30.2in /  1022.6hPa NE 7mph /  11.3km/h 21mph /  33.8km/h 91% 0.000in /  0mm 109.00 W/m2
10:54 37.0 °F /  2.8 °C 35.0 °F /  1.7 °C 30.2in /  1022.6hPa North 11mph /  17.7km/h 10mph /  16.1km/h 91% 0.000in /  0mm 118.00 W/m2
10:59 38.0 °F /  3.3 °C 35.0 °F /  1.7 °C 30.2in /  1022.6hPa NE 9mph /  14.5km/h 10mph /  16.1km/h 91% 0.000in /  0mm 118.00 W/m2
11:04 38.0 °F /  3.3 °C 35.0 °F /  1.7 °C 30.2in /  1022.6hPa ENE 6mph /  9.7km/h 9mph /  14.5km/h 91% 0.000in /  0mm 111.00 W/m2
11:09 38.0 °F /  3.3 °C 36.0 °F /  2.2 °C 30.2in /  1022.6hPa North 9mph /  14.5km/h 9mph /  14.5km/h 91% 0.000in /  0mm 116.00 W/m2
11:14 38.0 °F /  3.3 °C 36.0 °F /  2.2 °C 30.2in /  1022.6hPa East 9mph /  14.5km/h 9mph /  14.5km/h 91% 0.000in /  0mm 88.00 W/m2
11:19 38.0 °F /  3.3 °C 36.0 °F /  2.2 °C 30.2in /  1022.6hPa North 9mph /  14.5km/h 9mph /  14.5km/h 91% 0.000in /  0mm 86.00 W/m2
11:24 38.0 °F /  3.3 °C 36.0 °F /  2.2 °C 30.2in /  1022.6hPa ENE 7mph /  11.3km/h 7mph /  11.3km/h 91% 0.000in /  0mm 118.00 W/m2
11:29 38.0 °F /  3.3 °C 35.0 °F /  1.7 °C 30.2in /  1022.6hPa North 13mph /  20.9km/h 7mph /  11.3km/h 90% 0.000in /  0mm 123.00 W/m2
11:34 38.0 °F /  3.3 °C 36.0 °F /  2.2 °C 30.2in /  1022.6hPa WNW 9mph /  14.5km/h 13mph /  20.9km/h 90% 0.000in /  0mm 104.00 W/m2
11:39 38.0 °F /  3.3 °C 36.0 °F /  2.2 °C 30.2in /  1022.6hPa ENE 9mph /  14.5km/h 9mph /  14.5km/h 91% 0.000in /  0mm 86.00 W/m2
11:44 38.0 °F /  3.3 °C 36.0 °F /  2.2 °C 30.2in /  1022.6hPa North 11mph /  17.7km/h 9mph /  14.5km/h 91% 0.000in /  0mm 95.00 W/m2
11:49 38.0 °F /  3.3 °C 36.0 °F /  2.2 °C 30.2in /  1022.6hPa North 16mph /  25.7km/h 10mph /  16.1km/h 91% 0.010in /  0.25mm 67.00 W/m2
11:54 38.0 °F /  3.3 °C 36.0 °F /  2.2 °C 30.2in /  1022.6hPa NE 11mph /  17.7km/h 16mph /  25.7km/h 91% 0.010in /  0.25mm 91.00 W/m2
11:59 38.0 °F /  3.3 °C 35.0 °F /  1.7 °C 30.2in /  1022.6hPa NNE 10mph /  16.1km/h 10mph /  16.1km/h 90% 0.020in /  0.51mm 77.00 W/m2
12:03 38.0 °F /  3.3 °C 35.0 °F /  1.7 °C 30.2in /  1022.6hPa North 6mph /  9.7km/h 9mph /  14.5km/h 91% 0.020in /  0.51mm 116.00 W/m2
12:09 38.0 °F /  3.3 °C 35.0 °F /  1.7 °C 30.2in /  1022.6hPa North 10mph /  16.1km/h 9mph /  14.5km/h 91% 0.020in /  0.51mm 118.00 W/m2
12:14 38.0 °F /  3.3 °C 35.0 °F /  1.7 °C 30.2in /  1022.6hPa North 7mph /  11.3km/h 10mph /  16.1km/h 91% 0.020in /  0.51mm 107.00 W/m2
12:19 38.0 °F /  3.3 °C 35.0 °F /  1.7 °C 30.2in /  1022.6hPa North 9mph /  14.5km/h 7mph /  11.3km/h 91% 0.020in /  0.51mm 95.00 W/m2
12:24 38.0 °F /  3.3 °C 36.0 °F /  2.2 °C 30.2in /  1022.6hPa North 9mph /  14.5km/h 9mph /  14.5km/h 91% 0.020in /  0.51mm 95.00 W/m2
12:29 38.0 °F /  3.3 °C 36.0 °F /  2.2 °C 30.2in /  1022.6hPa NE 9mph /  14.5km/h 9mph /  14.5km/h 92% 0.020in /  0.51mm 97.00 W/m2
12:34 38.0 °F /  3.3 °C 36.0 °F /  2.2 °C 30.2in /  1022.6hPa SE 9mph /  14.5km/h 6mph /  9.7km/h 92% 0.020in /  0.51mm 90.00 W/m2
12:39 38.0 °F /  3.3 °C 36.0 °F /  2.2 °C 30.2in /  1022.6hPa NNE 11mph /  17.7km/h 9mph /  14.5km/h 92% 0.020in /  0.51mm 81.00 W/m2
12:44 38.0 °F /  3.3 °C 36.0 °F /  2.2 °C 30.2in /  1022.6hPa NNE 16mph /  25.7km/h 11mph /  17.7km/h 92% 0.020in /  0.51mm 72.00 W/m2
12:49 38.0 °F /  3.3 °C 36.0 °F /  2.2 °C 30.2in /  1022.6hPa NNW 9mph /  14.5km/h 16mph /  25.7km/h 92% 0.020in /  0.51mm 51.00 W/m2
12:54 38.0 °F /  3.3 °C 36.0 °F /  2.2 °C 30.2in /  1022.6hPa NE 9mph /  14.5km/h 9mph /  14.5km/h 91% 0.010in /  0.25mm 54.00 W/m2
12:59 38.0 °F /  3.3 °C 36.0 °F /  2.2 °C 30.2in /  1022.6hPa SSW 7mph /  11.3km/h 9mph /  14.5km/h 91% 0.010in /  0.25mm 51.00 W/m2
13:04 38.0 °F /  3.3 °C 35.0 °F /  1.7 °C 30.2in /  1022.6hPa ENE 11mph /  17.7km/h 7mph /  11.3km/h 91% 0.010in /  0.25mm 33.00 W/m2
13:09 38.0 °F /  3.3 °C 35.0 °F /  1.7 °C 30.2in /  1022.6hPa NNE 9mph /  14.5km/h 10mph /  16.1km/h 91% 0.010in /  0.25mm 32.00 W/m2
13:14 37.0 °F /  2.8 °C 35.0 °F /  1.7 °C 30.2in /  1022.6hPa NNE 7mph /  11.3km/h 9mph /  14.5km/h 91% 0.010in /  0.25mm 54.00 W/m2
13:19 37.0 °F /  2.8 °C 35.0 °F /  1.7 °C 30.2in /  1022.6hPa NNW 2mph /  3.2km/h 6mph /  9.7km/h 91% 0.010in /  0.25mm 54.00 W/m2
13:24 37.0 °F /  2.8 °C 35.0 °F /  1.7 °C 30.2in /  1022.6hPa NNE 9mph /  14.5km/h 9mph /  14.5km/h 92% 0.010in /  0.25mm 30.00 W/m2
13:29 37.0 °F /  2.8 °C 35.0 °F /  1.7 °C 30.2in /  1022.6hPa North 7mph /  11.3km/h 3mph /  4.8km/h 92% 0.010in /  0.25mm 37.00 W/m2
13:34 37.0 °F /  2.8 °C 35.0 °F /  1.7 °C 30.2in /  1022.6hPa East 13mph /  20.9km/h 7mph /  11.3km/h 92% 0.020in /  0.51mm 37.00 W/m2
13:39 37.0 °F /  2.8 °C 35.0 °F /  1.7 °C 30.2in /  1022.6hPa North 11mph /  17.7km/h 13mph /  20.9km/h 92% 0.020in /  0.51mm 42.00 W/m2
13:44 37.0 °F /  2.8 °C 35.0 °F /  1.7 °C 30.2in /  1022.6hPa East 16mph /  25.7km/h 10mph /  16.1km/h 92% 0.020in /  0.51mm 40.00 W/m2
13:49 37.0 °F /  2.8 °C 35.0 °F /  1.7 °C 30.2in /  1022.6hPa NE 16mph /  25.7km/h 16mph /  25.7km/h 92% 0.020in /  0.51mm 30.00 W/m2
13:54 37.0 °F /  2.8 °C 35.0 °F /  1.7 °C 30.2in /  1022.6hPa NNW 9mph /  14.5km/h 10mph /  16.1km/h 92% 0.020in /  0.51mm 39.00 W/m2
13:59 37.0 °F /  2.8 °C 35.0 °F /  1.7 °C 30.2in /  1022.6hPa North 16mph /  25.7km/h 9mph /  14.5km/h 92% 0.020in /  0.51mm 28.00 W/m2
14:04 37.0 °F /  2.8 °C 35.0 °F /  1.7 °C 30.2in /  1022.6hPa NNE 7mph /  11.3km/h 16mph /  25.7km/h 92% 0.030in /  0.76mm 23.00 W/m2
14:09 37.0 °F /  2.8 °C 35.0 °F /  1.7 °C 30.2in /  1022.6hPa SE 9mph /  14.5km/h 7mph /  11.3km/h 92% 0.030in /  0.76mm 28.00 W/m2
14:14 37.0 °F /  2.8 °C 35.0 °F /  1.7 °C 30.2in /  1022.6hPa NNE 6mph /  9.7km/h 9mph /  14.5km/h 92% 0.030in /  0.76mm 30.00 W/m2
14:19 37.0 °F /  2.8 °C 35.0 °F /  1.7 °C 30.2in /  1022.6hPa ENE 9mph /  14.5km/h 6mph /  9.7km/h 92% 0.030in /  0.76mm 25.00 W/m2
14:24 37.0 °F /  2.8 °C 35.0 °F /  1.7 °C 30.2in /  1022.6hPa North 6mph /  9.7km/h 9mph /  14.5km/h 92% 0.030in /  0.76mm 23.00 W/m2
14:29 37.0 °F /  2.8 °C 35.0 °F /  1.7 °C 30.2in /  1022.6hPa NE 7mph /  11.3km/h 6mph /  9.7km/h 92% 0.040in /  1.02mm 25.00 W/m2
14:34 37.0 °F /  2.8 °C 34.0 °F /  1.1 °C 30.2in /  1022.6hPa NNE 13mph /  20.9km/h 10mph /  16.1km/h 92% 0.040in /  1.02mm 23.00 W/m2
14:39 36.0 °F /  2.2 °C 34.0 °F /  1.1 °C 30.2in /  1022.6hPa East 9mph /  14.5km/h 13mph /  20.9km/h 92% 0.040in /  1.02mm 16.00 W/m2
14:44 36.0 °F /  2.2 °C 34.0 °F /  1.1 °C 30.2in /  1022.6hPa WSW 7mph /  11.3km/h 9mph /  14.5km/h 92% 0.040in /  1.02mm 16.00 W/m2
14:49 36.0 °F /  2.2 °C 34.0 °F /  1.1 °C 30.2in /  1022.6hPa NE 7mph /  11.3km/h 7mph /  11.3km/h 92% 0.050in /  1.27mm 18.00 W/m2
14:54 36.0 °F /  2.2 °C 34.0 °F /  1.1 °C 30.2in /  1022.6hPa SSE 11mph /  17.7km/h 7mph /  11.3km/h 92% 0.050in /  1.27mm 18.00 W/m2
14:59 36.0 °F /  2.2 °C 34.0 °F /  1.1 °C 30.2in /  1022.6hPa North 7mph /  11.3km/h 10mph /  16.1km/h 92% 0.050in /  1.27mm 18.00 W/m2
15:04 36.0 °F /  2.2 °C 34.0 °F /  1.1 °C 30.2in /  1022.6hPa North 9mph /  14.5km/h 7mph /  11.3km/h 92% 0.060in /  1.52mm 14.00 W/m2
15:09 36.0 °F /  2.2 °C 34.0 °F /  1.1 °C 30.2in /  1022.6hPa ENE 6mph /  9.7km/h 9mph /  14.5km/h 92% 0.050in /  1.27mm 19.00 W/m2
15:14 36.0 °F /  2.2 °C 34.0 °F /  1.1 °C 30.2in /  1022.6hPa ENE 9mph /  14.5km/h 6mph /  9.7km/h 92% 0.050in /  1.27mm 25.00 W/m2
15:19 36.0 °F /  2.2 °C 34.0 °F /  1.1 °C 30.2in /  1022.6hPa North 6mph /  9.7km/h 9mph /  14.5km/h 93% 0.050in /  1.27mm 23.00 W/m2
15:24 36.0 °F /  2.2 °C 34.0 °F /  1.1 °C 30.2in /  1022.6hPa NE 6mph /  9.7km/h 6mph /  9.7km/h 93% 0.050in /  1.27mm 23.00 W/m2
15:29 36.0 °F /  2.2 °C 34.0 °F /  1.1 °C 30.2in /  1022.6hPa NNW 11mph /  17.7km/h 7mph /  11.3km/h 93% 0.040in /  1.02mm 21.00 W/m2
15:34 36.0 °F /  2.2 °C 34.0 °F /  1.1 °C 30.2in /  1022.6hPa North 11mph /  17.7km/h 10mph /  16.1km/h 93% 0.040in /  1.02mm 19.00 W/m2
15:39 36.0 °F /  2.2 °C 34.0 °F /  1.1 °C 30.2in /  1022.6hPa NNE 9mph /  14.5km/h 10mph /  16.1km/h 93% 0.030in /  0.76mm 14.00 W/m2
15:44 36.0 °F /  2.2 °C 34.0 °F /  1.1 °C 30.2in /  1022.6hPa East 18mph /  29km/h 9mph /  14.5km/h 93% 0.040in /  1.02mm 11.00 W/m2
15:49 36.0 °F /  2.2 °C 34.0 °F /  1.1 °C 30.2in /  1022.6hPa North 7mph /  11.3km/h 17mph /  27.4km/h 93% 0.040in /  1.02mm 9.00 W/m2
15:54 36.0 °F /  2.2 °C 34.0 °F /  1.1 °C 30.2in /  1022.6hPa NNE 2mph /  3.2km/h 7mph /  11.3km/h 93% 0.030in /  0.76mm 9.00 W/m2
15:59 36.0 °F /  2.2 °C 34.0 °F /  1.1 °C 30.2in /  1022.6hPa NNW 6mph /  9.7km/h 6mph /  9.7km/h 93% 0.040in /  1.02mm 7.00 W/m2
16:04 36.0 °F /  2.2 °C 34.0 °F /  1.1 °C 30.2in /  1022.6hPa North 7mph /  11.3km/h 6mph /  9.7km/h 93% 0.030in /  0.76mm 7.00 W/m2
16:09 36.0 °F /  2.2 °C 34.0 °F /  1.1 °C 30.2in /  1022.6hPa North 7mph /  11.3km/h 7mph /  11.3km/h 93% 0.030in /  0.76mm 5.00 W/m2
16:14 36.0 °F /  2.2 °C 34.0 °F /  1.1 °C 30.2in /  1022.6hPa NNE 6mph /  9.7km/h 7mph /  11.3km/h 93% 0.040in /  1.02mm 5.00 W/m2
16:19 36.0 °F /  2.2 °C 34.0 °F /  1.1 °C 30.2in /  1022.6hPa North 7mph /  11.3km/h 3mph /  4.8km/h 93% 0.030in /  0.76mm 0.00 W/m2
16:24 36.0 °F /  2.2 °C 34.0 °F /  1.1 °C 30.2in /  1022.6hPa NE 9mph /  14.5km/h 7mph /  11.3km/h 93% 0.030in /  0.76mm 0.00 W/m2
16:29 36.0 °F /  2.2 °C 34.0 °F /  1.1 °C 30.2in /  1022.6hPa NE 18mph /  29km/h 9mph /  14.5km/h 93% 0.040in /  1.02mm 0.00 W/m2
16:34 36.0 °F /  2.2 °C 34.0 °F /  1.1 °C 30.2in /  1022.6hPa NNE 7mph /  11.3km/h 17mph /  27.4km/h 93% 0.040in /  1.02mm 0.00 W/m2
16:39 36.0 °F /  2.2 °C 34.0 °F /  1.1 °C 30.2in /  1022.6hPa NNW 9mph /  14.5km/h 9mph /  14.5km/h 93% 0.050in /  1.27mm 0.00 W/m2
16:44 36.0 °F /  2.2 °C 34.0 °F /  1.1 °C 30.2in /  1022.6hPa ENE 7mph /  11.3km/h 7mph /  11.3km/h 93% 0.040in /  1.02mm 0.00 W/m2
16:49 36.0 °F /  2.2 °C 34.0 °F /  1.1 °C 30.2in /  1022.6hPa North 11mph /  17.7km/h 4mph /  6.4km/h 93% 0.040in /  1.02mm 0.00 W/m2
16:54 36.0 °F /  2.2 °C 34.0 °F /  1.1 °C 30.2in /  1022.6hPa North 13mph /  20.9km/h 10mph /  16.1km/h 93% 0.040in /  1.02mm 0.00 W/m2
16:59 35.0 °F /  1.7 °C 34.0 °F /  1.1 °C 30.2in /  1022.6hPa East 6mph /  9.7km/h 13mph /  20.9km/h 93% 0.040in /  1.02mm 0.00 W/m2
17:04 35.0 °F /  1.7 °C 34.0 °F /  1.1 °C 30.2in /  1022.6hPa North 7mph /  11.3km/h 6mph /  9.7km/h 93% 0.040in /  1.02mm 0.00 W/m2
17:09 35.0 °F /  1.7 °C 34.0 °F /  1.1 °C 30.2in /  1022.6hPa NNE 6mph /  9.7km/h 7mph /  11.3km/h 93% 0.040in /  1.02mm 0.00 W/m2
17:14 35.0 °F /  1.7 °C 34.0 °F /  1.1 °C 30.2in /  1022.6hPa NNE 6mph /  9.7km/h 6mph /  9.7km/h 93% 0.030in /  0.76mm 0.00 W/m2
17:19 35.0 °F /  1.7 °C 33.0 °F /  0.6 °C 30.2in /  1022.6hPa ESE 9mph /  14.5km/h 6mph /  9.7km/h 93% 0.040in /  1.02mm 0.00 W/m2
17:24 35.0 °F /  1.7 °C 33.0 °F /  0.6 °C 30.2in /  1022.6hPa North 6mph /  9.7km/h 3mph /  4.8km/h 93% 0.040in /  1.02mm 0.00 W/m2
17:29 35.0 °F /  1.7 °C 33.0 °F /  0.6 °C 30.2in /  1022.6hPa East 6mph /  9.7km/h 6mph /  9.7km/h 93% 0.040in /  1.02mm 0.00 W/m2
17:34 35.0 °F /  1.7 °C 33.0 °F /  0.6 °C 30.2in /  1022.6hPa NNW 6mph /  9.7km/h 6mph /  9.7km/h 93% 0.030in /  0.76mm 0.00 W/m2
17:39 35.0 °F /  1.7 °C 33.0 °F /  0.6 °C 30.2in /  1022.6hPa NNE 7mph /  11.3km/h 6mph /  9.7km/h 93% 0.020in /  0.51mm 0.00 W/m2
17:44 35.0 °F /  1.7 °C 33.0 °F /  0.6 °C 30.2in /  1022.6hPa NE 13mph /  20.9km/h 7mph /  11.3km/h 93% 0.020in /  0.51mm 0.00 W/m2
17:49 35.0 °F /  1.7 °C 33.0 °F /  0.6 °C 30.2in /  1022.6hPa North 7mph /  11.3km/h 13mph /  20.9km/h 93% 0.020in /  0.51mm 0.00 W/m2
17:54 35.0 °F /  1.7 °C 33.0 °F /  0.6 °C 30.2in /  1022.6hPa North 7mph /  11.3km/h 6mph /  9.7km/h 93% 0.020in /  0.51mm 0.00 W/m2
17:59 35.0 °F /  1.7 °C 33.0 °F /  0.6 °C 30.2in /  1022.6hPa NNE 7mph /  11.3km/h 7mph /  11.3km/h 93% 0.030in /  0.76mm 0.00 W/m2
18:04 35.0 °F /  1.7 °C 33.0 °F /  0.6 °C 30.2in /  1022.6hPa NNW 9mph /  14.5km/h 9mph /  14.5km/h 93% 0.030in /  0.76mm 0.00 W/m2
18:09 35.0 °F /  1.7 °C 33.0 °F /  0.6 °C 30.2in /  1022.6hPa North 11mph /  17.7km/h 10mph /  16.1km/h 93% 0.020in /  0.51mm 0.00 W/m2
18:14 35.0 °F /  1.7 °C 33.0 °F /  0.6 °C 30.2in /  1022.6hPa NNW 7mph /  11.3km/h 10mph /  16.1km/h 93% 0.020in /  0.51mm 0.00 W/m2
18:19 35.0 °F /  1.7 °C 33.0 °F /  0.6 °C 30.2in /  1022.6hPa North 9mph /  14.5km/h 6mph /  9.7km/h 93% 0.020in /  0.51mm 0.00 W/m2
18:24 35.0 °F /  1.7 °C 33.0 °F /  0.6 °C 30.2in /  1022.6hPa North 7mph /  11.3km/h 9mph /  14.5km/h 93% 0.020in /  0.51mm 0.00 W/m2
18:29 35.0 °F /  1.7 °C 33.0 °F /  0.6 °C 30.2in /  1022.6hPa NNE 2mph /  3.2km/h   93% 0.020in /  0.51mm 0.00 W/m2
18:34 35.0 °F /  1.7 °C 33.0 °F /  0.6 °C 30.2in /  1022.6hPa NNE 11mph /  17.7km/h 5mph /  8km/h 93% 0.030in /  0.76mm 0.00 W/m2
18:39 35.0 °F /  1.7 °C 33.0 °F /  0.6 °C 30.2in /  1022.6hPa NNW 9mph /  14.5km/h 10mph /  16.1km/h 93% 0.030in /  0.76mm 0.00 W/m2
18:44 35.0 °F /  1.7 °C 33.0 °F /  0.6 °C 30.2in /  1022.6hPa NNE 11mph /  17.7km/h 9mph /  14.5km/h 93% 0.030in /  0.76mm 0.00 W/m2
18:49 35.0 °F /  1.7 °C 33.0 °F /  0.6 °C 30.2in /  1022.6hPa NNE 13mph /  20.9km/h 13mph /  20.9km/h 93% 0.040in /  1.02mm 0.00 W/m2
18:54 35.0 °F /  1.7 °C 33.0 °F /  0.6 °C 30.2in /  1022.6hPa North 9mph /  14.5km/h 3mph /  4.8km/h 93% 0.040in /  1.02mm 0.00 W/m2
18:59 35.0 °F /  1.7 °C 33.0 °F /  0.6 °C 30.2in /  1022.6hPa North 7mph /  11.3km/h 9mph /  14.5km/h 93% 0.040in /  1.02mm 0.00 W/m2
19:04 35.0 °F /  1.7 °C 33.0 °F /  0.6 °C 30.2in /  1022.6hPa NNE 7mph /  11.3km/h 7mph /  11.3km/h 93% 0.030in /  0.76mm 0.00 W/m2
19:09 35.0 °F /  1.7 °C 33.0 °F /  0.6 °C 30.2in /  1022.6hPa North 4mph /  6.4km/h 7mph /  11.3km/h 93% 0.030in /  0.76mm 0.00 W/m2
19:14 35.0 °F /  1.7 °C 33.0 °F /  0.6 °C 30.2in /  1022.6hPa NNW 4mph /  6.4km/h 3mph /  4.8km/h 94% 0.030in /  0.76mm 0.00 W/m2
19:19 35.0 °F /  1.7 °C 33.0 °F /  0.6 °C 30.2in /  1022.6hPa North 2mph /  3.2km/h 3mph /  4.8km/h 94% 0.030in /  0.76mm 0.00 W/m2
19:24 35.0 °F /  1.7 °C 33.0 °F /  0.6 °C 30.2in /  1022.6hPa NNE 9mph /  14.5km/h 4mph /  6.4km/h 94% 0.020in /  0.51mm 0.00 W/m2
19:29 35.0 °F /  1.7 °C 33.0 °F /  0.6 °C 30.2in /  1022.6hPa North 4mph /  6.4km/h 9mph /  14.5km/h 94% 0.020in /  0.51mm 0.00 W/m2
19:34 35.0 °F /  1.7 °C 33.0 °F /  0.6 °C 30.2in /  1022.6hPa Calm     94% 0.020in /  0.51mm 0.00 W/m2
19:39 35.0 °F /  1.7 °C 33.0 °F /  0.6 °C 30.2in /  1022.6hPa Calm     94% 0.010in /  0.25mm 0.00 W/m2
19:44 35.0 °F /  1.7 °C 33.0 °F /  0.6 °C 30.2in /  1022.6hPa NE 6mph /  9.7km/h 2mph /  3.2km/h 94% 0.010in /  0.25mm 0.00 W/m2
19:49 35.0 °F /  1.7 °C 33.0 °F /  0.6 °C 30.2in /  1022.6hPa North 4mph /  6.4km/h 6mph /  9.7km/h 94% 0.010in /  0.25mm 0.00 W/m2
19:54 35.0 °F /  1.7 °C 33.0 °F /  0.6 °C 30.2in /  1022.6hPa NE 4mph /  6.4km/h 3mph /  4.8km/h 94% 0.010in /  0.25mm 0.00 W/m2
19:59 35.0 °F /  1.7 °C 33.0 °F /  0.6 °C 30.2in /  1022.6hPa NNE 4mph /  6.4km/h 3mph /  4.8km/h 94% 0.010in /  0.25mm 0.00 W/m2
20:04 35.0 °F /  1.7 °C 33.0 °F /  0.6 °C 30.2in /  1022.6hPa NE 2mph /  3.2km/h 2mph /  3.2km/h 94% 0.010in /  0.25mm 0.00 W/m2
20:09 35.0 °F /  1.7 °C 33.0 °F /  0.6 °C 30.2in /  1022.6hPa North 13mph /  20.9km/h 7mph /  11.3km/h 94% 0.020in /  0.51mm 0.00 W/m2
20:14 35.0 °F /  1.7 °C 33.0 °F /  0.6 °C 30.2in /  1022.6hPa NNW 12mph /  19.3km/h 13mph /  20.9km/h 94% 0.020in /  0.51mm 0.00 W/m2
20:19 35.0 °F /  1.7 °C 33.0 °F /  0.6 °C 30.2in /  1022.6hPa NNE 13mph /  20.9km/h 13mph /  20.9km/h 94% 0.030in /  0.76mm 0.00 W/m2
20:24 35.0 °F /  1.7 °C 33.0 °F /  0.6 °C 30.2in /  1022.6hPa North 13mph /  20.9km/h 9mph /  14.5km/h 94% 0.030in /  0.76mm 0.00 W/m2
20:29 35.0 °F /  1.7 °C 33.0 °F /  0.6 °C 30.2in /  1022.6hPa NE 10mph /  16.1km/h 13mph /  20.9km/h 94% 0.040in /  1.02mm 0.00 W/m2
20:34 35.0 °F /  1.7 °C 33.0 °F /  0.6 °C 30.2in /  1022.6hPa NE 18mph /  29km/h 17mph /  27.4km/h 94% 0.050in /  1.27mm 0.00 W/m2
20:39 35.0 °F /  1.7 °C 33.0 °F /  0.6 °C 30.2in /  1022.6hPa North 13mph /  20.9km/h 14mph /  22.5km/h 94% 0.050in /  1.27mm 0.00 W/m2
20:44 35.0 °F /  1.7 °C 33.0 °F /  0.6 °C 30.2in /  1022.6hPa North 9mph /  14.5km/h 13mph /  20.9km/h 94% 0.060in /  1.52mm 0.00 W/m2
20:49 35.0 °F /  1.7 °C 33.0 °F /  0.6 °C 30.2in /  1022.6hPa North 9mph /  14.5km/h 9mph /  14.5km/h 94% 0.060in /  1.52mm 0.00 W/m2
20:54 34.0 °F /  1.1 °C 33.0 °F /  0.6 °C 30.2in /  1022.6hPa Calm   9mph /  14.5km/h 94% 0.060in /  1.52mm 0.00 W/m2
20:59 34.0 °F /  1.1 °C 33.0 °F /  0.6 °C 30.1in /  1019.2hPa North 13mph /  20.9km/h 8mph /  12.9km/h 94% 0.060in /  1.52mm 0.00 W/m2
21:04 34.0 °F /  1.1 °C 32.0 °F /  0 °C 30.1in /  1019.2hPa North 10mph /  16.1km/h 13mph /  20.9km/h 93% 0.070in /  1.78mm 0.00 W/m2
21:09 34.0 °F /  1.1 °C 32.0 °F /  0 °C 30.1in /  1019.2hPa North 9mph /  14.5km/h 7mph /  11.3km/h 93% 0.070in /  1.78mm 0.00 W/m2
21:14 34.0 °F /  1.1 °C 32.0 °F /  0 °C 30.1in /  1019.2hPa NNE 9mph /  14.5km/h 9mph /  14.5km/h 93% 0.070in /  1.78mm 0.00 W/m2
21:19 34.0 °F /  1.1 °C 32.0 °F /  0 °C 30.1in /  1019.2hPa NE 6mph /  9.7km/h 9mph /  14.5km/h 93% 0.070in /  1.78mm 0.00 W/m2
21:24 34.0 °F /  1.1 °C 32.0 °F /  0 °C 30.1in /  1019.2hPa NW 7mph /  11.3km/h 6mph /  9.7km/h 94% 0.070in /  1.78mm 0.00 W/m2
21:29 34.0 °F /  1.1 °C 32.0 °F /  0 °C 30.1in /  1019.2hPa North 11mph /  17.7km/h 7mph /  11.3km/h 93% 0.070in /  1.78mm 0.00 W/m2
21:34 34.0 °F /  1.1 °C 32.0 °F /  0 °C 30.1in /  1019.2hPa NNW 10mph /  16.1km/h 10mph /  16.1km/h 93% 0.060in /  1.52mm 0.00 W/m2
21:39 34.0 °F /  1.1 °C 32.0 °F /  0 °C 30.1in /  1019.2hPa NNW 4mph /  6.4km/h 3mph /  4.8km/h 93% 0.060in /  1.52mm 0.00 W/m2
21:44 34.0 °F /  1.1 °C 32.0 °F /  0 °C 30.1in /  1019.2hPa North 11mph /  17.7km/h 6mph /  9.7km/h 94% 0.050in /  1.27mm 0.00 W/m2
21:49 34.0 °F /  1.1 °C 32.0 °F /  0 °C 30.1in /  1019.2hPa WNW 7mph /  11.3km/h 10mph /  16.1km/h 94% 0.060in /  1.52mm 0.00 W/m2
21:54 34.0 °F /  1.1 °C 32.0 °F /  0 °C 30.1in /  1019.2hPa NW 4mph /  6.4km/h 7mph /  11.3km/h 94% 0.060in /  1.52mm 0.00 W/m2
21:59 34.0 °F /  1.1 °C 32.0 °F /  0 °C 30.1in /  1019.2hPa NNE 6mph /  9.7km/h 3mph /  4.8km/h 94% 0.060in /  1.52mm 0.00 W/m2
22:04 34.0 °F /  1.1 °C 32.0 °F /  0 °C 30.1in /  1019.2hPa North 9mph /  14.5km/h 5mph /  8km/h 94% 0.060in /  1.52mm 0.00 W/m2
22:09 34.0 °F /  1.1 °C 32.0 °F /  0 °C 30.1in /  1019.2hPa NNE 6mph /  9.7km/h 9mph /  14.5km/h 94% 0.060in /  1.52mm 0.00 W/m2
22:14 34.0 °F /  1.1 °C 32.0 °F /  0 °C 30.1in /  1019.2hPa NNE 16mph /  25.7km/h 8mph /  12.9km/h 94% 0.070in /  1.78mm 0.00 W/m2
22:19 34.0 °F /  1.1 °C 32.0 °F /  0 °C 30.1in /  1019.2hPa NNE 16mph /  25.7km/h 16mph /  25.7km/h 94% 0.070in /  1.78mm 0.00 W/m2
22:24 34.0 °F /  1.1 °C 33.0 °F /  0.6 °C 30.1in /  1019.2hPa ENE 11mph /  17.7km/h 9mph /  14.5km/h 94% 0.070in /  1.78mm 0.00 W/m2
22:29 34.0 °F /  1.1 °C 33.0 °F /  0.6 °C 30.1in /  1019.2hPa ENE 13mph /  20.9km/h 14mph /  22.5km/h 94% 0.070in /  1.78mm 0.00 W/m2
22:34 34.0 °F /  1.1 °C 33.0 °F /  0.6 °C 30.1in /  1019.2hPa ENE 16mph /  25.7km/h 13mph /  20.9km/h 94% 0.070in /  1.78mm 0.00 W/m2
22:39 34.0 °F /  1.1 °C 33.0 °F /  0.6 °C 30.1in /  1019.2hPa North 18mph /  29km/h 16mph /  25.7km/h 94% 0.070in /  1.78mm 0.00 W/m2
22:44 34.0 °F /  1.1 °C 33.0 °F /  0.6 °C 30.1in /  1019.2hPa NE 19mph /  30.6km/h 17mph /  27.4km/h 94% 0.080in /  2.03mm 0.00 W/m2
22:49 34.0 °F /  1.1 °C 33.0 °F /  0.6 °C 30.1in /  1019.2hPa NE 20mph /  32.2km/h 20mph /  32.2km/h 94% 0.070in /  1.78mm 0.00 W/m2
22:54 34.0 °F /  1.1 °C 33.0 °F /  0.6 °C 30.1in /  1019.2hPa NE 13mph /  20.9km/h 17mph /  27.4km/h 94% 0.080in /  2.03mm 0.00 W/m2
22:59 34.0 °F /  1.1 °C 33.0 °F /  0.6 °C 30.1in /  1019.2hPa NNE 18mph /  29km/h 16mph /  25.7km/h 94% 0.080in /  2.03mm 0.00 W/m2
23:04 34.0 °F /  1.1 °C 33.0 °F /  0.6 °C 30.1in /  1019.2hPa North 18mph /  29km/h 17mph /  27.4km/h 94% 0.080in /  2.03mm 0.00 W/m2
23:09 34.0 °F /  1.1 °C 33.0 °F /  0.6 °C 30.1in /  1019.2hPa NE 17mph /  27.4km/h 17mph /  27.4km/h 94% 0.070in /  1.78mm 0.00 W/m2
23:14 34.0 °F /  1.1 °C 33.0 °F /  0.6 °C 30.1in /  1019.2hPa NNE 13mph /  20.9km/h 13mph /  20.9km/h 94% 0.080in /  2.03mm 0.00 W/m2
23:19 34.0 °F /  1.1 °C 33.0 °F /  0.6 °C 30.1in /  1019.2hPa NE 7mph /  11.3km/h 9mph /  14.5km/h 94% 0.080in /  2.03mm 0.00 W/m2
23:24 34.0 °F /  1.1 °C 33.0 °F /  0.6 °C 30.1in /  1019.2hPa ESE 9mph /  14.5km/h 7mph /  11.3km/h 94% 0.080in /  2.03mm 0.00 W/m2
23:29 34.0 °F /  1.1 °C 33.0 °F /  0.6 °C 30.1in /  1019.2hPa East 19mph /  30.6km/h 10mph /  16.1km/h 94% 0.080in /  2.03mm 0.00 W/m2
23:34 34.0 °F /  1.1 °C 33.0 °F /  0.6 °C 30.1in /  1019.2hPa East 20mph /  32.2km/h 20mph /  32.2km/h 94% 0.080in /  2.03mm 0.00 W/m2
23:39 34.0 °F /  1.1 °C 33.0 °F /  0.6 °C 30.1in /  1019.2hPa NE 18mph /  29km/h 9mph /  14.5km/h 94% 0.080in /  2.03mm 0.00 W/m2
23:44 34.0 °F /  1.1 °C 33.0 °F /  0.6 °C 30.1in /  1019.2hPa NE 16mph /  25.7km/h 17mph /  27.4km/h 94% 0.070in /  1.78mm 0.00 W/m2
23:49 34.0 °F /  1.1 °C 33.0 °F /  0.6 °C 30.1in /  1019.2hPa NE 18mph /  29km/h 16mph /  25.7km/h 94% 0.070in /  1.78mm 0.00 W/m2
23:54 34.0 °F /  1.1 °C 33.0 °F /  0.6 °C 30.1in /  1019.2hPa NNE 17mph /  27.4km/h 17mph /  27.4km/h 94% 0.070in /  1.78mm 0.00 W/m2
23:59 34.0 °F /  1.1 °C 33.0 °F /  0.6 °C 30.1in /  1019.2hPa NE 20mph /  32.2km/h 16mph /  25.7km/h 94% 0.070in /  1.78mm 0.00 W/m2
El Dorado Weather
Compliments of Weather Underground - 4 mb